APL Cairo — S6HU3 — position and weather

sailwx.info

Track history (hours):
 
Tides and Currents Weather Stations Pressure Air Temp Water Temp Dewpoint Dewpoint Depression Visibility Wind Speed Wind Dir Waves Ship Positions

APL Cairo

Last reported at 2017-Nov-14 15:38 UTC. Time now 2017-Nov-18 10:33 UTC.
Position N 21°30' E 114°04'.

Length 207 m; draft 10 m.

Type: Cargo ship. MMSI: 563266000.

Date/timePositionNaut miles runAvg speedWind from/ knotsBaromVisibWave heightAir tempDewpointWater temp
2017-Nov-14 15:38N 21°30' E 114°04'418.4
2017-Nov-14 15:24N 21°34' E 114°06'918.5
2017-Nov-14 14:56N 21°41' E 114°12'1018.4
2017-Nov-14 14:24N 21°49' E 114°17'818.4
2017-Nov-14 13:59N 21°56' E 114°20'817.0
2017-Nov-14 13:30N 22°04' E 114°21'1016.8
2017-Nov-14 12:56N 22°10' E 114°12'614.1
2017-Nov-14 12:30N 22°14' E 114°08'810.4
2017-Nov-14 11:41N 22°21' E 114°02'314.6
2017-Nov-14 11:30N 22°21' E 113°59'612.2
2017-Nov-14 11:00N 22°24' E 113°53'3 6.2
2017-Nov-14 10:30N 22°27' E 113°54'0 0.3
2017-Nov-14 09:59N 22°27' E 113°53'0 0.0
2017-Nov-14 09:29N 22°27' E 113°53'0 0.0
2017-Nov-14 08:59N 22°27' E 113°53'0 0.0
2017-Nov-14 08:29N 22°27' E 113°53'0 0.0
2017-Nov-14 08:00N 22°27' E 113°53'0 0.0
2017-Nov-14 07:30N 22°27' E 113°53'0 0.0
2017-Nov-14 07:00N 22°27' E 113°53'0 0.0
2017-Nov-14 06:30N 22°27' E 113°53'0 0.0
2017-Nov-14 06:00N 22°27' E 113°53'0 0.0
2017-Nov-14 05:30N 22°27' E 113°53'0 0.0
2017-Nov-14 05:00N 22°27' E 113°53'0 0.0
2017-Nov-14 04:30N 22°27' E 113°53'0 0.0
2017-Nov-14 04:00N 22°27' E 113°53'0 0.0
2017-Nov-14 03:30N 22°27' E 113°53'0 0.0
2017-Nov-14 03:00N 22°27' E 113°53'0 0.0
2017-Nov-14 02:30N 22°27' E 113°53'0 0.0
2017-Nov-14 02:00N 22°27' E 113°53'0 0.0
2017-Nov-14 01:30N 22°27' E 113°53'0 0.0
2017-Nov-14 01:00N 22°27' E 113°53'0 0.0
2017-Nov-14 00:30N 22°27' E 113°53'0 0.0
2017-Nov-14 00:00N 22°27' E 113°53'0 0.0
2017-Nov-13 23:30N 22°27' E 113°53'0 0.0
2017-Nov-13 23:00N 22°27' E 113°53'0 0.0
2017-Nov-13 22:30N 22°27' E 113°53'0 0.0
2017-Nov-13 22:00N 22°27' E 113°53'25311.0
2017-Nov-12 22:58N 23°49' E 118°13'919.8
2017-Nov-12 22:30N 23°55' E 118°21'  
2017-Nov-10 14:24N 33°55' E 134°53'718.7
2017-Nov-10 14:00N 34°03' E 134°55'918.2
2017-Nov-10 13:30N 34°12' E 134°56'510.0
2017-Nov-10 13:00N 34°16' E 134°58'816.2
2017-Nov-10 12:30N 34°24' E 135°02'918.6
2017-Nov-10 12:00N 34°30' E 135°11'917.9
2017-Nov-10 11:30N 34°38' E 135°16'3 5.8
2017-Nov-10 11:00N 34°40' E 135°14'0 0.1
2017-Nov-10 10:16N 34°40' E 135°14'0 0.0
2017-Nov-10 09:58N 34°40' E 135°14'0 0.0
2017-Nov-10 09:28N 34°40' E 135°14'0 0.1
2017-Nov-10 08:58N 34°40' E 135°14'0 0.1
2017-Nov-10 08:04N 34°40' E 135°14'0 0.1
2017-Nov-10 07:58N 34°40' E 135°14'0 0.0
2017-Nov-10 07:28N 34°40' E 135°14'0 0.0
2017-Nov-10 06:52N 34°40' E 135°14'0 0.0
2017-Nov-10 06:28N 34°40' E 135°14'0 0.0
2017-Nov-10 05:58N 34°40' E 135°14'0 0.0
2017-Nov-10 05:28N 34°40' E 135°14'0 0.0
2017-Nov-10 04:46N 34°40' E 135°14'0 0.0
2017-Nov-10 04:22N 34°40' E 135°14'0 0.1
2017-Nov-10 03:58N 34°40' E 135°14'0 0.1
2017-Nov-10 03:28N 34°40' E 135°14'0 0.1
2017-Nov-10 02:58N 34°40' E 135°14'0 0.1
2017-Nov-10 02:28N 34°40' E 135°14'0 0.0
2017-Nov-10 01:58N 34°40' E 135°14'0 0.0
2017-Nov-10 01:22N 34°40' E 135°14'0 0.0
2017-Nov-10 00:40N 34°40' E 135°14'0 0.3
2017-Nov-10 00:28N 34°40' E 135°14'0 0.1
2017-Nov-09 23:58N 34°40' E 135°14'0 0.1
2017-Nov-09 23:28N 34°40' E 135°14'0 0.0
2017-Nov-09 23:00N 34°40' E 135°14'2 4.3
2017-Nov-09 22:30N 34°39' E 135°16'4 7.8
2017-Nov-09 22:00N 34°35' E 135°16'713.7
2017-Nov-09 21:30N 34°29' E 135°10'917.7
2017-Nov-09 21:00N 34°23' E 135°04'816.3
2017-Nov-09 20:30N 34°15' E 134°59'713.2
2017-Nov-09 20:00N 34°09' E 135°01'714.2
2017-Nov-09 19:30N 34°02' E 135°01'228 7.3
2017-Nov-08 12:25N 34°56' E 139°29'815.6
2017-Nov-08 11:54N 35°01' E 139°37'716.2
2017-Nov-08 11:30N 35°05' E 139°43'714.8
2017-Nov-08 11:00N 35°12' E 139°46'510.7
2017-Nov-08 10:30N 35°17' E 139°45'713.4
2017-Nov-08 10:00N 35°24' E 139°42'3 6.3
2017-Nov-08 09:31N 35°27' E 139°41'0 0.6
2017-Nov-08 09:00N 35°26' E 139°41'0 0.0
2017-Nov-08 08:30N 35°26' E 139°41'0 0.0
2017-Nov-08 08:00N 35°26' E 139°41'0 0.0
2017-Nov-08 07:30N 35°26' E 139°41'0 0.0
2017-Nov-08 07:00N 35°26' E 139°41'0 0.0
2017-Nov-08 06:30N 35°26' E 139°41'0 0.0
2017-Nov-08 06:00N 35°26' E 139°41'0 0.1
2017-Nov-08 05:30N 35°26' E 139°41'0 0.1
2017-Nov-08 05:00N 35°26' E 139°41'0 0.0
2017-Nov-08 04:30N 35°26' E 139°41'0 0.0
2017-Nov-08 03:57N 35°26' E 139°41'0 0.0
2017-Nov-08 03:30N 35°26' E 139°41'0 0.0
2017-Nov-08 03:00N 35°26' E 139°41'0 0.0
2017-Nov-08 02:30N 35°26' E 139°41'0 0.0
2017-Nov-08 02:00N 35°26' E 139°41'0 0.0
2017-Nov-08 01:30N 35°26' E 139°41'0 0.0
2017-Nov-08 01:00N 35°26' E 139°41'0 0.0
2017-Nov-08 00:30N 35°26' E 139°41'0 0.0
2017-Nov-08 00:00N 35°26' E 139°41'0 0.0
2017-Nov-07 23:30N 35°26' E 139°41'0 0.1
2017-Nov-07 23:00N 35°26' E 139°41'2 3.5
2017-Nov-07 22:30N 35°26' E 139°43'2 4.2
2017-Nov-07 22:00N 35°27' E 139°45'3 6.8
2017-Nov-07 21:30N 35°28' E 139°49'510.7
2017-Nov-07 21:00N 35°34' E 139°50'3 7.0
2017-Nov-07 20:30N 35°36' E 139°47'0 0.1
2017-Nov-07 20:01N 35°36' E 139°47'0 0.0
2017-Nov-07 19:31N 35°36' E 139°47'0 0.0
2017-Nov-07 18:55N 35°36' E 139°47'0 0.0
2017-Nov-07 18:27N 35°36' E 139°47'0 0.0
2017-Nov-07 18:00N 35°36' E 139°47'0 0.0
2017-Nov-07 17:30N 35°36' E 139°47'0 0.0
2017-Nov-07 16:58N 35°36' E 139°47'0 0.0
2017-Nov-07 16:25N 35°36' E 139°47'0 0.0
2017-Nov-07 16:01N 35°36' E 139°47'0 0.0
2017-Nov-07 15:24N 35°36' E 139°47'0 0.0
2017-Nov-07 15:01N 35°36' E 139°47'0 0.0
2017-Nov-07 14:31N 35°36' E 139°47'0 0.0
2017-Nov-07 13:55N 35°36' E 139°47'0 0.0
2017-Nov-07 13:18N 35°36' E 139°47'0 0.0
2017-Nov-07 13:01N 35°36' E 139°47'0 0.0
2017-Nov-07 12:25N 35°36' E 139°47'0 0.0
2017-Nov-07 12:01N 35°36' E 139°47'0 0.0
2017-Nov-07 11:24N 35°36' E 139°47'0 0.0
2017-Nov-07 10:57N 35°36' E 139°47'0 0.0
2017-Nov-07 10:28N 35°36' E 139°47'0 0.0
2017-Nov-07 10:01N 35°36' E 139°47'0 0.0
2017-Nov-07 09:28N 35°36' E 139°47'0 0.0
2017-Nov-07 09:01N 35°36' E 139°47'0 0.0
2017-Nov-07 08:31N 35°36' E 139°47'0 0.0
2017-Nov-07 07:54N 35°36' E 139°47'0 0.0
2017-Nov-07 07:31N 35°36' E 139°47'0 0.0
2017-Nov-07 06:54N 35°36' E 139°47'0 0.0
2017-Nov-07 06:28N 35°36' E 139°47'0 0.0
2017-Nov-07 05:58N 35°36' E 139°47'0 0.0
2017-Nov-07 05:30N 35°36' E 139°47'0 0.0
2017-Nov-07 05:00N 35°36' E 139°47'0 0.0
2017-Nov-07 04:30N 35°36' E 139°47'0 0.0
2017-Nov-07 04:01N 35°36' E 139°47'0 0.0
2017-Nov-07 03:30N 35°36' E 139°47'0 0.0
2017-Nov-07 03:00N 35°36' E 139°47'0 0.0
2017-Nov-07 02:30N 35°36' E 139°47'0 0.0
2017-Nov-07 01:55N 35°36' E 139°47'0 0.0
2017-Nov-07 01:31N 35°36' E 139°47'0 0.0
2017-Nov-07 01:01N 35°36' E 139°47'0 0.0
2017-Nov-07 00:28N 35°36' E 139°47'0 0.0
2017-Nov-06 23:52N 35°36' E 139°47'0 0.0
2017-Nov-06 23:28N 35°36' E 139°47'0 0.0
2017-Nov-06 23:00N 35°36' E 139°47'2 3.7
2017-Nov-06 22:30N 35°35' E 139°48'511.0
2017-Nov-06 22:00N 35°31' E 139°53'713.1
2017-Nov-06 21:31N 35°25' E 139°48'612.7
2017-Nov-06 21:00N 35°20' E 139°44'611.6
2017-Nov-06 20:30N 35°14' E 139°47'  
Track history (hours):
 
Tides and Currents Weather Stations Pressure Air Temp Water Temp Dewpoint Dewpoint Depression Visibility Wind Speed Wind Dir Waves Ship Positions

APL Cairo

Last reported at 2017-Nov-14 15:38 UTC. Time now 2017-Nov-18 10:33 UTC.
Position N 21°30' E 114°04'.

Length 207 m; draft 10 m.

Type: Cargo ship. MMSI: 563266000.

Date/timePositionNaut miles runAvg speedWind from/ knotsBaromVisibWave heightAir tempDewpointWater temp
2017-Nov-14 15:38N 21°30' E 114°04'418.4
2017-Nov-14 15:24N 21°34' E 114°06'918.5
2017-Nov-14 14:56N 21°41' E 114°12'1018.4
2017-Nov-14 14:24N 21°49' E 114°17'818.4
2017-Nov-14 13:59N 21°56' E 114°20'817.0
2017-Nov-14 13:30N 22°04' E 114°21'1016.8
2017-Nov-14 12:56N 22°10' E 114°12'614.1
2017-Nov-14 12:30N 22°14' E 114°08'810.4
2017-Nov-14 11:41N 22°21' E 114°02'314.6
2017-Nov-14 11:30N 22°21' E 113°59'612.2
2017-Nov-14 11:00N 22°24' E 113°53'3 6.2
2017-Nov-14 10:30N 22°27' E 113°54'0 0.3
2017-Nov-14 09:59N 22°27' E 113°53'0 0.0
2017-Nov-14 09:29N 22°27' E 113°53'0 0.0
2017-Nov-14 08:59N 22°27' E 113°53'0 0.0
2017-Nov-14 08:29N 22°27' E 113°53'0 0.0
2017-Nov-14 08:00N 22°27' E 113°53'0 0.0
2017-Nov-14 07:30N 22°27' E 113°53'0 0.0
2017-Nov-14 07:00N 22°27' E 113°53'0 0.0
2017-Nov-14 06:30N 22°27' E 113°53'0 0.0
2017-Nov-14 06:00N 22°27' E 113°53'0 0.0
2017-Nov-14 05:30N 22°27' E 113°53'0 0.0
2017-Nov-14 05:00N 22°27' E 113°53'0 0.0
2017-Nov-14 04:30N 22°27' E 113°53'0 0.0
2017-Nov-14 04:00N 22°27' E 113°53'0 0.0
2017-Nov-14 03:30N 22°27' E 113°53'0 0.0
2017-Nov-14 03:00N 22°27' E 113°53'0 0.0
2017-Nov-14 02:30N 22°27' E 113°53'0 0.0
2017-Nov-14 02:00N 22°27' E 113°53'0 0.0
2017-Nov-14 01:30N 22°27' E 113°53'0 0.0
2017-Nov-14 01:00N 22°27' E 113°53'0 0.0
2017-Nov-14 00:30N 22°27' E 113°53'0 0.0
2017-Nov-14 00:00N 22°27' E 113°53'0 0.0
2017-Nov-13 23:30N 22°27' E 113°53'0 0.0
2017-Nov-13 23:00N 22°27' E 113°53'0 0.0
2017-Nov-13 22:30N 22°27' E 113°53'0 0.0
2017-Nov-13 22:00N 22°27' E 113°53'25311.0
2017-Nov-12 22:58N 23°49' E 118°13'919.8
2017-Nov-12 22:30N 23°55' E 118°21'  
2017-Nov-10 14:24N 33°55' E 134°53'718.7
2017-Nov-10 14:00N 34°03' E 134°55'918.2
2017-Nov-10 13:30N 34°12' E 134°56'510.0
2017-Nov-10 13:00N 34°16' E 134°58'816.2
2017-Nov-10 12:30N 34°24' E 135°02'918.6
2017-Nov-10 12:00N 34°30' E 135°11'917.9
2017-Nov-10 11:30N 34°38' E 135°16'3 5.8
2017-Nov-10 11:00N 34°40' E 135°14'0 0.1
2017-Nov-10 10:16N 34°40' E 135°14'0 0.0
2017-Nov-10 09:58N 34°40' E 135°14'0 0.0
2017-Nov-10 09:28N 34°40' E 135°14'0 0.1
2017-Nov-10 08:58N 34°40' E 135°14'0 0.1
2017-Nov-10 08:04N 34°40' E 135°14'0 0.1
2017-Nov-10 07:58N 34°40' E 135°14'0 0.0
2017-Nov-10 07:28N 34°40' E 135°14'0 0.0
2017-Nov-10 06:52N 34°40' E 135°14'0 0.0
2017-Nov-10 06:28N 34°40' E 135°14'0 0.0
2017-Nov-10 05:58N 34°40' E 135°14'0 0.0
2017-Nov-10 05:28N 34°40' E 135°14'0 0.0
2017-Nov-10 04:46N 34°40' E 135°14'0 0.0
2017-Nov-10 04:22N 34°40' E 135°14'0 0.1
2017-Nov-10 03:58N 34°40' E 135°14'0 0.1
2017-Nov-10 03:28N 34°40' E 135°14'0 0.1
2017-Nov-10 02:58N 34°40' E 135°14'0 0.1
2017-Nov-10 02:28N 34°40' E 135°14'0 0.0
2017-Nov-10 01:58N 34°40' E 135°14'0 0.0
2017-Nov-10 01:22N 34°40' E 135°14'0 0.0
2017-Nov-10 00:40N 34°40' E 135°14'0 0.3
2017-Nov-10 00:28N 34°40' E 135°14'0 0.1
2017-Nov-09 23:58N 34°40' E 135°14'0 0.1
2017-Nov-09 23:28N 34°40' E 135°14'0 0.0
2017-Nov-09 23:00N 34°40' E 135°14'2 4.3
2017-Nov-09 22:30N 34°39' E 135°16'4 7.8
2017-Nov-09 22:00N 34°35' E 135°16'713.7
2017-Nov-09 21:30N 34°29' E 135°10'917.7
2017-Nov-09 21:00N 34°23' E 135°04'816.3
2017-Nov-09 20:30N 34°15' E 134°59'713.2
2017-Nov-09 20:00N 34°09' E 135°01'714.2
2017-Nov-09 19:30N 34°02' E 135°01'228 7.3
2017-Nov-08 12:25N 34°56' E 139°29'815.6
2017-Nov-08 11:54N 35°01' E 139°37'716.2
2017-Nov-08 11:30N 35°05' E 139°43'714.8
2017-Nov-08 11:00N 35°12' E 139°46'510.7
2017-Nov-08 10:30N 35°17' E 139°45'713.4
2017-Nov-08 10:00N 35°24' E 139°42'3 6.3
2017-Nov-08 09:31N 35°27' E 139°41'0 0.6
2017-Nov-08 09:00N 35°26' E 139°41'0 0.0
2017-Nov-08 08:30N 35°26' E 139°41'0 0.0
2017-Nov-08 08:00N 35°26' E 139°41'0 0.0
2017-Nov-08 07:30N 35°26' E 139°41'0 0.0
2017-Nov-08 07:00N 35°26' E 139°41'0 0.0
2017-Nov-08 06:30N 35°26' E 139°41'0 0.0
2017-Nov-08 06:00N 35°26' E 139°41'0 0.1
2017-Nov-08 05:30N 35°26' E 139°41'0 0.1
2017-Nov-08 05:00N 35°26' E 139°41'0 0.0
2017-Nov-08 04:30N 35°26' E 139°41'0 0.0
2017-Nov-08 03:57N 35°26' E 139°41'0 0.0
2017-Nov-08 03:30N 35°26' E 139°41'0 0.0
2017-Nov-08 03:00N 35°26' E 139°41'0 0.0
2017-Nov-08 02:30N 35°26' E 139°41'0 0.0
2017-Nov-08 02:00N 35°26' E 139°41'0 0.0
2017-Nov-08 01:30N 35°26' E 139°41'0 0.0
2017-Nov-08 01:00N 35°26' E 139°41'0 0.0
2017-Nov-08 00:30N 35°26' E 139°41'0 0.0
2017-Nov-08 00:00N 35°26' E 139°41'0 0.0
2017-Nov-07 23:30N 35°26' E 139°41'0 0.1
2017-Nov-07 23:00N 35°26' E 139°41'2 3.5
2017-Nov-07 22:30N 35°26' E 139°43'2 4.2
2017-Nov-07 22:00N 35°27' E 139°45'3 6.8
2017-Nov-07 21:30N 35°28' E 139°49'510.7
2017-Nov-07 21:00N 35°34' E 139°50'3 7.0
2017-Nov-07 20:30N 35°36' E 139°47'0 0.1
2017-Nov-07 20:01N 35°36' E 139°47'0 0.0
2017-Nov-07 19:31N 35°36' E 139°47'0 0.0
2017-Nov-07 18:55N 35°36' E 139°47'0 0.0
2017-Nov-07 18:27N 35°36' E 139°47'0 0.0
2017-Nov-07 18:00N 35°36' E 139°47'0 0.0
2017-Nov-07 17:30N 35°36' E 139°47'0 0.0
2017-Nov-07 16:58N 35°36' E 139°47'0 0.0
2017-Nov-07 16:25N 35°36' E 139°47'0 0.0
2017-Nov-07 16:01N 35°36' E 139°47'0 0.0
2017-Nov-07 15:24N 35°36' E 139°47'0 0.0
2017-Nov-07 15:01N 35°36' E 139°47'0 0.0
2017-Nov-07 14:31N 35°36' E 139°47'0 0.0
2017-Nov-07 13:55N 35°36' E 139°47'0 0.0
2017-Nov-07 13:18N 35°36' E 139°47'0 0.0
2017-Nov-07 13:01N 35°36' E 139°47'0 0.0
2017-Nov-07 12:25N 35°36' E 139°47'0 0.0
2017-Nov-07 12:01N 35°36' E 139°47'0 0.0
2017-Nov-07 11:24N 35°36' E 139°47'0 0.0
2017-Nov-07 10:57N 35°36' E 139°47'0 0.0
2017-Nov-07 10:28N 35°36' E 139°47'0 0.0
2017-Nov-07 10:01N 35°36' E 139°47'0 0.0
2017-Nov-07 09:28N 35°36' E 139°47'0 0.0
2017-Nov-07 09:01N 35°36' E 139°47'0 0.0
2017-Nov-07 08:31N 35°36' E 139°47'0 0.0
2017-Nov-07 07:54N 35°36' E 139°47'0 0.0
2017-Nov-07 07:31N 35°36' E 139°47'0 0.0
2017-Nov-07 06:54N 35°36' E 139°47'0 0.0
2017-Nov-07 06:28N 35°36' E 139°47'0 0.0
2017-Nov-07 05:58N 35°36' E 139°47'0 0.0
2017-Nov-07 05:30N 35°36' E 139°47'0 0.0
2017-Nov-07 05:00N 35°36' E 139°47'0 0.0
2017-Nov-07 04:30N 35°36' E 139°47'0 0.0
2017-Nov-07 04:01N 35°36' E 139°47'0 0.0
2017-Nov-07 03:30N 35°36' E 139°47'0 0.0
2017-Nov-07 03:00N 35°36' E 139°47'0 0.0
2017-Nov-07 02:30N 35°36' E 139°47'0 0.0
2017-Nov-07 01:55N 35°36' E 139°47'0 0.0
2017-Nov-07 01:31N 35°36' E 139°47'0 0.0
2017-Nov-07 01:01N 35°36' E 139°47'0 0.0
2017-Nov-07 00:28N 35°36' E 139°47'0 0.0
2017-Nov-06 23:52N 35°36' E 139°47'0 0.0
2017-Nov-06 23:28N 35°36' E 139°47'0 0.0
2017-Nov-06 23:00N 35°36' E 139°47'2 3.7
2017-Nov-06 22:30N 35°35' E 139°48'511.0
2017-Nov-06 22:00N 35°31' E 139°53'713.1
2017-Nov-06 21:31N 35°25' E 139°48'612.7
2017-Nov-06 21:00N 35°20' E 139°44'611.6
2017-Nov-06 20:30N 35°14' E 139°47'  

Dump ship's entire track history